PWSweather.com
Personal Weather Stations
Station Observations
ARECO747
Argentina , San Antonio ArecoAR Bs.As

Argentina San Antonio ArecoAR Bs.As

Lat: -34.24447275818, Lon: -59.47654187679

Elevation: 102

Station Type: InformaciĆ³n generada con nuevo Microchip Ethernet conectado a estaciĆ³n WH1081

http://www.meteostar.com.ar

Latest ConditionsUpdated 12:13:01 PM GMT-03:57 Monday, Apr 23, 2018
Currently Today's Max Today's Min Today's Average
Temperature 66.9°F19.4°C 67.1°F19.5°C 63.5°F17.5°C 65.3°F18.5°C
Dew Point 63.9°F17.7°C 64.4°F18.0°C 61.9°F16.6°C 63.6°F17.6°C
Winds 6.0 mph SE9.7 kmh SE 9.2 mph ESE14.8 kmh ESE - 3.5 mph 5.6 kmh
Wind Gusts 13.6 mph21.9 kmh 15.9 mph25.6 kmh - -
Humidity 90% 97% 87% 94%
Pressure 30.04 in1017.3 mb 30.05 in1017.6 mb 29.83 in1010.2 mb -
Precipitation - 0.01 in0.3 mm - -
Hour Temp Dew Point Humidity Winds Wind Gusts Pressure Precip Precip Rate Daily Precip Total
12:13 PM 66.9°F19.4°C 63.9°F17.7°C 90% 6.0 mph SE9.7 kmh SE 13.6 mph21.9 kmh 30.04 in1017.3 mb 0.00 in0.0 mm 0.00 in0.0 mm 0.01 in0.3 mm
12:07 PM 66.9°F19.4°C 63.9°F17.7°C 90% 8.3 mph S13.4 kmh S 13.0 mph20.9 kmh 30.04 in1017.3 mb 0.00 in0.0 mm 0.00 in0.0 mm 0.01 in0.3 mm
12:02 PM 67.1°F19.5°C 63.7°F17.6°C 89% 3.8 mph W6.1 kmh W 12.1 mph19.5 kmh 30.04 in1017.3 mb 0.00 in0.0 mm 0.00 in0.0 mm 0.01 in0.3 mm
11:57 AM 67.1°F19.5°C 63.7°F17.6°C 89% 5.4 mph S8.7 kmh S 11.4 mph18.3 kmh 30.04 in1017.3 mb 0.00 in0.0 mm 0.00 in0.0 mm 0.01 in0.3 mm
11:52 AM 67.1°F19.5°C 64.0°F17.8°C 90% 6.0 mph E9.7 kmh E 9.8 mph15.8 kmh 30.04 in1017.3 mb 0.00 in0.0 mm 0.00 in0.0 mm 0.01 in0.3 mm
11:47 AM 66.9°F19.4°C 64.2°F17.9°C 91% 3.8 mph S6.1 kmh S 8.3 mph13.4 kmh 30.04 in1017.3 mb 0.00 in0.0 mm 0.00 in0.0 mm 0.01 in0.3 mm
11:42 AM 66.7°F19.3°C 64.0°F17.8°C 91% 4.5 mph S7.2 kmh S 11.4 mph18.3 kmh 30.04 in1017.3 mb 0.00 in0.0 mm 0.00 in0.0 mm 0.01 in0.3 mm
11:36 AM 66.7°F19.3°C 64.4°F18.0°C 92% 5.4 mph SE8.7 kmh SE 13.6 mph21.9 kmh 30.04 in1017.3 mb 0.00 in0.0 mm 0.00 in0.0 mm 0.01 in0.3 mm
11:31 AM 66.6°F19.2°C 63.9°F17.7°C 91% 8.3 mph E13.4 kmh E 13.6 mph21.9 kmh 30.05 in1017.6 mb 0.01 in0.3 mm 0.00 in0.0 mm 0.01 in0.3 mm
11:26 AM 66.6°F19.2°C 64.2°F17.9°C 92% 6.0 mph E9.7 kmh E 13.0 mph20.9 kmh 30.05 in1017.6 mb 0.01 in0.3 mm 0.00 in0.0 mm 0.01 in0.3 mm
11:21 AM 66.6°F19.2°C 64.2°F17.9°C 92% 6.9 mph SE11.1 kmh SE 11.4 mph18.3 kmh 30.04 in1017.3 mb 0.01 in0.3 mm 0.00 in0.0 mm 0.01 in0.3 mm
11:16 AM 66.6°F19.2°C 64.2°F17.9°C 92% 3.8 mph SE6.1 kmh SE 11.4 mph18.3 kmh 30.04 in1017.3 mb 0.01 in0.3 mm 0.00 in0.0 mm 0.01 in0.3 mm
11:10 AM 66.6°F19.2°C 64.2°F17.9°C 92% 3.1 mph E5.0 kmh E 9.8 mph15.8 kmh 30.04 in1017.3 mb 0.01 in0.3 mm 0.00 in0.0 mm 0.01 in0.3 mm
11:05 AM 66.6°F19.2°C 64.2°F17.9°C 92% 3.1 mph S5.0 kmh S 9.8 mph15.8 kmh 30.03 in1016.9 mb 0.01 in0.3 mm 0.00 in0.0 mm 0.01 in0.3 mm
11:00 AM 66.6°F19.2°C 63.9°F17.7°C 91% 4.5 mph SE7.2 kmh SE 12.1 mph19.5 kmh 30.03 in1016.9 mb 0.01 in0.3 mm 0.00 in0.0 mm 0.01 in0.3 mm
10:55 AM 66.6°F19.2°C 63.9°F17.7°C 91% 6.9 mph SE11.1 kmh SE 12.1 mph19.5 kmh 30.02 in1016.6 mb 0.01 in0.3 mm 0.00 in0.0 mm 0.01 in0.3 mm
10:50 AM 66.6°F19.2°C 63.9°F17.7°C 91% 6.0 mph SW9.7 kmh SW 13.0 mph20.9 kmh 30.01 in1016.3 mb 0.01 in0.3 mm 0.00 in0.0 mm 0.01 in0.3 mm
10:45 AM 66.6°F19.2°C 63.9°F17.7°C 91% 6.9 mph SE11.1 kmh SE 14.5 mph23.3 kmh 30.01 in1016.3 mb 0.01 in0.3 mm 0.00 in0.0 mm 0.01 in0.3 mm
10:39 AM 66.6°F19.2°C 64.2°F17.9°C 92% 8.3 mph E13.4 kmh E 15.9 mph25.6 kmh 30.01 in1016.3 mb 0.01 in0.3 mm 0.12 in3.0 mm 0.01 in0.3 mm
10:34 AM 66.6°F19.2°C 64.4°F18.0°C 93% 3.1 mph SE5.0 kmh SE 10.7 mph17.2 kmh 30.01 in1016.3 mb 0.00 in0.0 mm 0.00 in0.0 mm 0.00 in0.0 mm
10:29 AM 66.2°F19.0°C 64.0°F17.8°C 93% 4.5 mph E7.2 kmh E 9.8 mph15.8 kmh 30.01 in1016.3 mb 0.00 in0.0 mm 0.00 in0.0 mm 0.00 in0.0 mm
10:24 AM 65.8°F18.8°C 63.7°F17.6°C 93% 6.9 mph SE11.1 kmh SE 13.6 mph21.9 kmh 30.01 in1016.3 mb 0.00 in0.0 mm 0.00 in0.0 mm 0.00 in0.0 mm
10:19 AM 65.8°F18.8°C 63.7°F17.6°C 93% 6.0 mph S9.7 kmh S 9.8 mph15.8 kmh 30.01 in1016.3 mb 0.00 in0.0 mm 0.00 in0.0 mm 0.00 in0.0 mm
10:14 AM 65.8°F18.8°C 63.7°F17.6°C 93% 7.6 mph E12.2 kmh E 11.4 mph18.3 kmh 30.01 in1016.3 mb 0.00 in0.0 mm 0.00 in0.0 mm 0.00 in0.0 mm
10:08 AM 65.8°F18.8°C 63.7°F17.6°C 93% 8.3 mph SE13.4 kmh SE 11.4 mph18.3 kmh 30.01 in1016.3 mb 0.00 in0.0 mm 0.00 in0.0 mm 0.00 in0.0 mm
10:03 AM 65.8°F18.8°C 63.7°F17.6°C 93% 3.8 mph E6.1 kmh E 11.4 mph18.3 kmh 30.00 in1015.9 mb 0.00 in0.0 mm 0.00 in0.0 mm 0.00 in0.0 mm
09:58 AM 65.7°F18.7°C 63.9°F17.7°C 94% 3.8 mph ESE6.1 kmh ESE 9.2 mph14.8 kmh 30.00 in1015.9 mb 0.00 in0.0 mm 0.00 in0.0 mm 0.00 in0.0 mm
09:53 AM 65.5°F18.6°C 63.7°F17.6°C 94% 4.5 mph E7.2 kmh E 9.8 mph15.8 kmh 30.00 in1015.9 mb 0.00 in0.0 mm 0.00 in0.0 mm 0.00 in0.0 mm
09:48 AM 65.1°F18.4°C 63.7°F17.6°C 95% 3.8 mph E6.1 kmh E 12.1 mph19.5 kmh 29.99 in1015.6 mb 0.00 in0.0 mm 0.00 in0.0 mm 0.00 in0.0 mm
09:43 AM 65.1°F18.4°C 63.7°F17.6°C 95% 6.0 mph SE9.7 kmh SE 10.7 mph17.2 kmh 29.98 in1015.2 mb 0.00 in0.0 mm 0.00 in0.0 mm 0.00 in0.0 mm
09:37 AM 64.9°F18.3°C 63.5°F17.5°C 95% 6.0 mph SE9.7 kmh SE 13.6 mph21.9 kmh 29.98 in1015.2 mb 0.00 in0.0 mm 0.00 in0.0 mm 0.00 in0.0 mm
09:32 AM 64.9°F18.3°C 63.5°F17.5°C 95% 6.0 mph SSE9.7 kmh SSE 9.2 mph14.8 kmh 29.99 in1015.6 mb 0.00 in0.0 mm 0.00 in0.0 mm 0.00 in0.0 mm
09:27 AM 64.9°F18.3°C 63.5°F17.5°C 95% 3.8 mph SE6.1 kmh SE 10.7 mph17.2 kmh 29.98 in1015.2 mb 0.00 in0.0 mm 0.00 in0.0 mm 0.00 in0.0 mm
09:22 AM 64.9°F18.3°C 63.5°F17.5°C 95% 5.4 mph SSE8.7 kmh SSE 11.4 mph18.3 kmh 29.98 in1015.2 mb 0.00 in0.0 mm 0.00 in0.0 mm 0.00 in0.0 mm
09:17 AM 64.9°F18.3°C 63.9°F17.7°C 96% 9.2 mph S14.8 kmh S 9.8 mph15.8 kmh 29.98 in1015.2 mb 0.00 in0.0 mm 0.00 in0.0 mm 0.00 in0.0 mm
09:12 AM 64.9°F18.3°C 64.0°F17.8°C 97% 6.9 mph SE11.1 kmh SE 9.8 mph15.8 kmh 29.98 in1015.2 mb 0.00 in0.0 mm 0.00 in0.0 mm 0.00 in0.0 mm
09:06 AM 64.6°F18.1°C 63.7°F17.6°C 97% 8.3 mph NE13.4 kmh NE 9.8 mph15.8 kmh 29.98 in1015.2 mb 0.00 in0.0 mm 0.00 in0.0 mm 0.00 in0.0 mm
09:01 AM 64.4°F18.0°C 63.5°F17.5°C 97% 5.4 mph S8.7 kmh S 8.3 mph13.4 kmh 29.98 in1015.2 mb 0.00 in0.0 mm 0.00 in0.0 mm 0.00 in0.0 mm
08:56 AM 64.2°F17.9°C 63.3°F17.4°C 97% 4.5 mph S7.2 kmh S 7.6 mph12.2 kmh 29.98 in1015.2 mb 0.00 in0.0 mm 0.00 in0.0 mm 0.00 in0.0 mm
08:51 AM 64.0°F17.8°C 63.1°F17.3°C 97% 6.0 mph SE9.7 kmh SE 9.2 mph14.8 kmh 29.98 in1015.2 mb 0.00 in0.0 mm 0.00 in0.0 mm 0.00 in0.0 mm
08:46 AM 64.0°F17.8°C 63.1°F17.3°C 97% 3.8 mph SW6.1 kmh SW 8.3 mph13.4 kmh 29.98 in1015.2 mb 0.00 in0.0 mm 0.00 in0.0 mm 0.00 in0.0 mm
08:41 AM 64.0°F17.8°C 63.1°F17.3°C 97% 5.4 mph SE8.7 kmh SE 7.6 mph12.2 kmh 29.97 in1014.9 mb 0.00 in0.0 mm 0.00 in0.0 mm 0.00 in0.0 mm
08:35 AM 63.9°F17.7°C 63.0°F17.2°C 97% 3.8 mph S6.1 kmh S 9.8 mph15.8 kmh 29.96 in1014.6 mb 0.00 in0.0 mm 0.00 in0.0 mm 0.00 in0.0 mm
08:30 AM 63.9°F17.7°C 63.0°F17.2°C 97% 4.5 mph S7.2 kmh S 6.0 mph9.7 kmh 29.96 in1014.6 mb 0.00 in0.0 mm 0.00 in0.0 mm 0.00 in0.0 mm
08:25 AM 63.9°F17.7°C 63.0°F17.2°C 97% 3.8 mph S6.1 kmh S 6.0 mph9.7 kmh 29.96 in1014.6 mb 0.00 in0.0 mm 0.00 in0.0 mm 0.00 in0.0 mm
08:20 AM 63.9°F17.7°C 63.0°F17.2°C 97% 3.1 mph S5.0 kmh S -- 29.96 in1014.6 mb 0.00 in0.0 mm 0.00 in0.0 mm 0.00 in0.0 mm
08:12 AM 64.4°F18.0°C 63.5°F17.5°C 97% 3.1 mph S5.0 kmh S 4.5 mph7.2 kmh 29.96 in1014.6 mb 0.00 in0.0 mm 0.00 in0.0 mm 0.00 in0.0 mm
08:07 AM 64.4°F18.0°C 63.5°F17.5°C 97% 3.1 mph S5.0 kmh S 6.9 mph11.1 kmh 29.96 in1014.6 mb 0.00 in0.0 mm 0.00 in0.0 mm 0.00 in0.0 mm
08:01 AM 64.6°F18.1°C 63.7°F17.6°C 97% 3.8 mph S6.1 kmh S 6.0 mph9.7 kmh 29.96 in1014.6 mb 0.00 in0.0 mm 0.00 in0.0 mm 0.00 in0.0 mm
07:56 AM 64.8°F18.2°C 63.9°F17.7°C 97% 1.6 mph W2.6 kmh W 6.0 mph9.7 kmh 29.96 in1014.6 mb 0.00 in0.0 mm 0.00 in0.0 mm 0.00 in0.0 mm
07:51 AM 64.9°F18.3°C 64.0°F17.8°C 97% 0.7 mph SW1.1 kmh SW 3.8 mph6.1 kmh 29.95 in1014.2 mb 0.00 in0.0 mm 0.00 in0.0 mm 0.00 in0.0 mm
07:46 AM 65.1°F18.4°C 64.2°F17.9°C 97% 3.1 mph SSE5.0 kmh SSE 7.6 mph12.2 kmh 29.95 in1014.2 mb 0.00 in0.0 mm 0.00 in0.0 mm 0.00 in0.0 mm
07:40 AM 65.3°F18.5°C 64.4°F18.0°C 97% 3.8 mph SE6.1 kmh SE 5.4 mph8.7 kmh 29.95 in1014.2 mb 0.00 in0.0 mm 0.00 in0.0 mm 0.00 in0.0 mm
07:35 AM 65.3°F18.5°C 64.4°F18.0°C 97% 1.6 mph SW2.6 kmh SW 3.8 mph6.1 kmh 29.95 in1014.2 mb 0.00 in0.0 mm 0.00 in0.0 mm 0.00 in0.0 mm
07:30 AM 65.3°F18.5°C 64.4°F18.0°C 97% 0.7 mph SE1.1 kmh SE 3.1 mph5.0 kmh 29.95 in1014.2 mb 0.00 in0.0 mm 0.00 in0.0 mm 0.00 in0.0 mm
07:25 AM 65.3°F18.5°C 64.4°F18.0°C 97% 2.2 mph SE3.5 kmh SE 3.1 mph5.0 kmh 29.94 in1013.9 mb 0.00 in0.0 mm 0.00 in0.0 mm 0.00 in0.0 mm
07:20 AM 65.3°F18.5°C 64.4°F18.0°C 97% 1.6 mph SE2.6 kmh SE 3.8 mph6.1 kmh 29.94 in1013.9 mb 0.00 in0.0 mm 0.00 in0.0 mm 0.00 in0.0 mm
07:15 AM 65.3°F18.5°C 64.4°F18.0°C 97% 1.6 mph SE2.6 kmh SE 3.1 mph5.0 kmh 29.94 in1013.9 mb 0.00 in0.0 mm 0.00 in0.0 mm 0.00 in0.0 mm
07:09 AM 65.3°F18.5°C 64.4°F18.0°C 97% 2.2 mph S3.5 kmh S 3.1 mph5.0 kmh 29.94 in1013.9 mb 0.00 in0.0 mm 0.00 in0.0 mm 0.00 in0.0 mm
07:04 AM 65.3°F18.5°C 64.4°F18.0°C 97% 0.7 mph S1.1 kmh S 3.1 mph5.0 kmh 29.95 in1014.2 mb 0.00 in0.0 mm 0.00 in0.0 mm 0.00 in0.0 mm
06:59 AM 65.3°F18.5°C 64.4°F18.0°C 97% 1.6 mph S2.6 kmh S 3.1 mph5.0 kmh 29.95 in1014.2 mb 0.00 in0.0 mm 0.00 in0.0 mm 0.00 in0.0 mm
06:54 AM 65.3°F18.5°C 64.4°F18.0°C 97% Calm Calm 2.2 mph3.5 kmh 29.94 in1013.9 mb 0.00 in0.0 mm 0.00 in0.0 mm 0.00 in0.0 mm
06:49 AM 65.3°F18.5°C 64.4°F18.0°C 97% 0.7 mph SE1.1 kmh SE 3.1 mph5.0 kmh 29.94 in1013.9 mb 0.00 in0.0 mm 0.00 in0.0 mm 0.00 in0.0 mm
06:44 AM 65.1°F18.4°C 64.2°F17.9°C 97% 0.7 mph SE1.1 kmh SE 3.8 mph6.1 kmh 29.94 in1013.9 mb 0.00 in0.0 mm 0.00 in0.0 mm 0.00 in0.0 mm
06:38 AM 65.1°F18.4°C 64.2°F17.9°C 97% 3.1 mph S5.0 kmh S 4.5 mph7.2 kmh 29.93 in1013.5 mb 0.00 in0.0 mm 0.00 in0.0 mm 0.00 in0.0 mm
06:33 AM 65.1°F18.4°C 64.2°F17.9°C 97% 2.2 mph S3.5 kmh S 3.8 mph6.1 kmh 29.93 in1013.5 mb 0.00 in0.0 mm 0.00 in0.0 mm 0.00 in0.0 mm
06:28 AM 65.1°F18.4°C 64.2°F17.9°C 97% 0.7 mph S1.1 kmh S 4.5 mph7.2 kmh 29.93 in1013.5 mb 0.00 in0.0 mm 0.00 in0.0 mm 0.00 in0.0 mm
06:23 AM 65.1°F18.4°C 64.2°F17.9°C 97% 1.6 mph SE2.6 kmh SE 5.4 mph8.7 kmh 29.92 in1013.2 mb 0.00 in0.0 mm 0.00 in0.0 mm 0.00 in0.0 mm
06:18 AM 65.1°F18.4°C 64.2°F17.9°C 97% 3.1 mph SE5.0 kmh SE 5.4 mph8.7 kmh 29.92 in1013.2 mb 0.00 in0.0 mm 0.00 in0.0 mm 0.00 in0.0 mm
06:13 AM 65.1°F18.4°C 64.2°F17.9°C 97% 3.1 mph SE5.0 kmh SE 6.0 mph9.7 kmh 29.91 in1012.9 mb 0.00 in0.0 mm 0.00 in0.0 mm 0.00 in0.0 mm
06:07 AM 65.1°F18.4°C 64.2°F17.9°C 97% 3.1 mph SE5.0 kmh SE 6.0 mph9.7 kmh 29.91 in1012.9 mb 0.00 in0.0 mm 0.00 in0.0 mm 0.00 in0.0 mm
06:02 AM 65.1°F18.4°C 64.2°F17.9°C 97% 2.2 mph E3.5 kmh E 5.4 mph8.7 kmh 29.91 in1012.9 mb 0.00 in0.0 mm 0.00 in0.0 mm 0.00 in0.0 mm
05:57 AM 65.1°F18.4°C 64.2°F17.9°C 97% 1.6 mph S2.6 kmh S 6.0 mph9.7 kmh 29.91 in1012.9 mb 0.00 in0.0 mm 0.00 in0.0 mm 0.00 in0.0 mm
05:52 AM 65.1°F18.4°C 64.2°F17.9°C 97% 3.1 mph E5.0 kmh E 5.4 mph8.7 kmh 29.91 in1012.9 mb 0.00 in0.0 mm 0.00 in0.0 mm 0.00 in0.0 mm
05:47 AM 65.3°F18.5°C 64.0°F17.8°C 96% 3.1 mph S5.0 kmh S 6.9 mph11.1 kmh 29.91 in1012.9 mb 0.00 in0.0 mm 0.00 in0.0 mm 0.00 in0.0 mm
05:41 AM 65.3°F18.5°C 64.0°F17.8°C 96% 1.6 mph SW2.6 kmh SW 6.0 mph9.7 kmh 29.91 in1012.9 mb 0.00 in0.0 mm 0.00 in0.0 mm 0.00 in0.0 mm
05:36 AM 65.3°F18.5°C 64.0°F17.8°C 96% 3.1 mph E5.0 kmh E 6.0 mph9.7 kmh 29.91 in1012.9 mb 0.00 in0.0 mm 0.00 in0.0 mm 0.00 in0.0 mm
05:31 AM 65.3°F18.5°C 64.0°F17.8°C 96% 3.1 mph S5.0 kmh S 6.0 mph9.7 kmh 29.91 in1012.9 mb 0.00 in0.0 mm 0.00 in0.0 mm 0.00 in0.0 mm
05:26 AM 65.3°F18.5°C 64.0°F17.8°C 96% 3.1 mph S5.0 kmh S 6.0 mph9.7 kmh 29.91 in1012.9 mb 0.00 in0.0 mm 0.00 in0.0 mm 0.00 in0.0 mm
05:21 AM 65.3°F18.5°C 64.0°F17.8°C 96% 3.1 mph SE5.0 kmh SE 5.4 mph8.7 kmh 29.91 in1012.9 mb 0.00 in0.0 mm 0.00 in0.0 mm 0.00 in0.0 mm
05:16 AM 65.3°F18.5°C 64.0°F17.8°C 96% 1.6 mph E2.6 kmh E 6.0 mph9.7 kmh 29.91 in1012.9 mb 0.00 in0.0 mm 0.00 in0.0 mm 0.00 in0.0 mm
05:10 AM 65.3°F18.5°C 64.0°F17.8°C 96% 3.1 mph S5.0 kmh S 6.9 mph11.1 kmh 29.91 in1012.9 mb 0.00 in0.0 mm 0.00 in0.0 mm 0.00 in0.0 mm
05:05 AM 65.3°F18.5°C 64.0°F17.8°C 96% 3.8 mph SE6.1 kmh SE 6.0 mph9.7 kmh 29.91 in1012.9 mb 0.00 in0.0 mm 0.00 in0.0 mm 0.00 in0.0 mm
05:00 AM 65.3°F18.5°C 64.0°F17.8°C 96% 3.8 mph SE6.1 kmh SE 7.6 mph12.2 kmh 29.90 in1012.5 mb 0.00 in0.0 mm 0.00 in0.0 mm 0.00 in0.0 mm
04:55 AM 65.3°F18.5°C 64.0°F17.8°C 96% 3.1 mph SSE5.0 kmh SSE 9.2 mph14.8 kmh 29.91 in1012.9 mb 0.00 in0.0 mm 0.00 in0.0 mm 0.00 in0.0 mm
04:50 AM 65.3°F18.5°C 64.0°F17.8°C 96% 4.5 mph SE7.2 kmh SE 6.0 mph9.7 kmh 29.91 in1012.9 mb 0.00 in0.0 mm 0.00 in0.0 mm 0.00 in0.0 mm
04:45 AM 65.3°F18.5°C 64.0°F17.8°C 96% 4.5 mph SE7.2 kmh SE 8.3 mph13.4 kmh 29.91 in1012.9 mb 0.00 in0.0 mm 0.00 in0.0 mm 0.00 in0.0 mm
04:39 AM 65.3°F18.5°C 64.0°F17.8°C 96% 3.8 mph SSE6.1 kmh SSE 6.0 mph9.7 kmh 29.91 in1012.9 mb 0.00 in0.0 mm 0.00 in0.0 mm 0.00 in0.0 mm
04:34 AM 65.3°F18.5°C 64.0°F17.8°C 96% 1.6 mph E2.6 kmh E 7.6 mph12.2 kmh 29.91 in1012.9 mb 0.00 in0.0 mm 0.00 in0.0 mm 0.00 in0.0 mm
04:29 AM 65.3°F18.5°C 64.0°F17.8°C 96% 5.4 mph SE8.7 kmh SE 7.6 mph12.2 kmh 29.91 in1012.9 mb 0.00 in0.0 mm 0.00 in0.0 mm 0.00 in0.0 mm
04:24 AM 65.3°F18.5°C 64.0°F17.8°C 96% 3.8 mph SSE6.1 kmh SSE 8.3 mph13.4 kmh 29.91 in1012.9 mb 0.00 in0.0 mm 0.00 in0.0 mm 0.00 in0.0 mm
04:19 AM 65.1°F18.4°C 64.2°F17.9°C 97% 3.8 mph SSE6.1 kmh SSE 6.9 mph11.1 kmh 29.91 in1012.9 mb 0.00 in0.0 mm 0.00 in0.0 mm 0.00 in0.0 mm
04:14 AM 65.1°F18.4°C 64.2°F17.9°C 97% 1.6 mph S2.6 kmh S 6.0 mph9.7 kmh 29.90 in1012.5 mb 0.00 in0.0 mm 0.00 in0.0 mm 0.00 in0.0 mm
04:08 AM 65.1°F18.4°C 64.2°F17.9°C 97% 3.1 mph SE5.0 kmh SE 6.0 mph9.7 kmh 29.91 in1012.9 mb 0.00 in0.0 mm 0.00 in0.0 mm 0.00 in0.0 mm
04:03 AM 65.1°F18.4°C 64.2°F17.9°C 97% 3.8 mph SE6.1 kmh SE 6.0 mph9.7 kmh 29.91 in1012.9 mb 0.00 in0.0 mm 0.00 in0.0 mm 0.00 in0.0 mm
03:58 AM 65.1°F18.4°C 64.2°F17.9°C 97% 3.1 mph S5.0 kmh S 7.6 mph12.2 kmh 29.91 in1012.9 mb 0.00 in0.0 mm 0.00 in0.0 mm 0.00 in0.0 mm
03:53 AM 65.1°F18.4°C 64.2°F17.9°C 97% 3.1 mph SE5.0 kmh SE 6.9 mph11.1 kmh 29.91 in1012.9 mb 0.00 in0.0 mm 0.00 in0.0 mm 0.00 in0.0 mm
03:48 AM 65.1°F18.4°C 64.2°F17.9°C 97% 2.2 mph SE3.5 kmh SE 4.5 mph7.2 kmh 29.92 in1013.2 mb 0.00 in0.0 mm 0.00 in0.0 mm 0.00 in0.0 mm
03:43 AM 65.1°F18.4°C 64.2°F17.9°C 97% 2.2 mph S3.5 kmh S 5.4 mph8.7 kmh 29.92 in1013.2 mb 0.00 in0.0 mm 0.00 in0.0 mm 0.00 in0.0 mm
03:37 AM 64.9°F18.3°C 64.0°F17.8°C 97% 3.8 mph S6.1 kmh S 5.4 mph8.7 kmh 29.92 in1013.2 mb 0.00 in0.0 mm 0.00 in0.0 mm 0.00 in0.0 mm
03:32 AM 64.9°F18.3°C 64.0°F17.8°C 97% 2.2 mph S3.5 kmh S 6.0 mph9.7 kmh 29.92 in1013.2 mb 0.00 in0.0 mm 0.00 in0.0 mm 0.00 in0.0 mm
03:27 AM 64.9°F18.3°C 64.0°F17.8°C 97% 1.6 mph SE2.6 kmh SE 3.8 mph6.1 kmh 29.92 in1013.2 mb 0.00 in0.0 mm 0.00 in0.0 mm 0.00 in0.0 mm
03:22 AM 64.8°F18.2°C 63.9°F17.7°C 97% 2.2 mph S3.5 kmh S 6.9 mph11.1 kmh 29.92 in1013.2 mb 0.00 in0.0 mm 0.00 in0.0 mm 0.00 in0.0 mm
03:17 AM 64.8°F18.2°C 63.9°F17.7°C 97% 3.1 mph S5.0 kmh S 4.5 mph7.2 kmh 29.92 in1013.2 mb 0.00 in0.0 mm 0.00 in0.0 mm 0.00 in0.0 mm
03:12 AM 64.6°F18.1°C 63.7°F17.6°C 97% 1.6 mph SSE2.6 kmh SSE 5.4 mph8.7 kmh 29.91 in1012.9 mb 0.00 in0.0 mm 0.00 in0.0 mm 0.00 in0.0 mm
03:06 AM 64.4°F18.0°C 63.5°F17.5°C 97% 2.2 mph S3.5 kmh S 5.4 mph8.7 kmh 29.91 in1012.9 mb 0.00 in0.0 mm 0.00 in0.0 mm 0.00 in0.0 mm
03:01 AM 64.4°F18.0°C 63.5°F17.5°C 97% 1.6 mph SW2.6 kmh SW 5.4 mph8.7 kmh 29.92 in1013.2 mb 0.00 in0.0 mm 0.00 in0.0 mm 0.00 in0.0 mm
02:56 AM 64.2°F17.9°C 63.3°F17.4°C 97% 2.2 mph SSE3.5 kmh SSE 7.6 mph12.2 kmh 29.92 in1013.2 mb 0.00 in0.0 mm 0.00 in0.0 mm 0.00 in0.0 mm
02:51 AM 64.2°F17.9°C 63.3°F17.4°C 97% 3.8 mph S6.1 kmh S 6.9 mph11.1 kmh 29.91 in1012.9 mb 0.00 in0.0 mm 0.00 in0.0 mm 0.00 in0.0 mm
02:46 AM 64.0°F17.8°C 63.1°F17.3°C 97% 2.2 mph S3.5 kmh S 8.3 mph13.4 kmh 29.91 in1012.9 mb 0.00 in0.0 mm 0.00 in0.0 mm 0.00 in0.0 mm
02:41 AM 64.0°F17.8°C 63.1°F17.3°C 97% 3.8 mph S6.1 kmh S 6.9 mph11.1 kmh 29.91 in1012.9 mb 0.00 in0.0 mm 0.00 in0.0 mm 0.00 in0.0 mm
02:35 AM 63.9°F17.7°C 62.8°F17.1°C 96% 3.8 mph S6.1 kmh S 10.7 mph17.2 kmh 29.91 in1012.9 mb 0.00 in0.0 mm 0.00 in0.0 mm 0.00 in0.0 mm
02:30 AM 63.7°F17.6°C 62.2°F16.8°C 95% 7.6 mph S12.2 kmh S 9.2 mph14.8 kmh 29.90 in1012.5 mb 0.00 in0.0 mm 0.00 in0.0 mm 0.00 in0.0 mm
02:25 AM 63.5°F17.5°C 62.1°F16.7°C 95% 1.6 mph SW2.6 kmh SW 2.2 mph3.5 kmh 29.88 in1011.9 mb 0.00 in0.0 mm 0.00 in0.0 mm 0.00 in0.0 mm
02:20 AM 63.5°F17.5°C 62.1°F16.7°C 95% 0.7 mph SW1.1 kmh SW 1.6 mph2.6 kmh 29.87 in1011.5 mb 0.00 in0.0 mm 0.00 in0.0 mm 0.00 in0.0 mm
02:15 AM 63.7°F17.6°C 61.9°F16.6°C 94% 0.7 mph S1.1 kmh S 2.2 mph3.5 kmh 29.86 in1011.2 mb 0.00 in0.0 mm 0.00 in0.0 mm 0.00 in0.0 mm
02:10 AM 63.7°F17.6°C 61.9°F16.6°C 94% 0.7 mph SW1.1 kmh SW 1.6 mph2.6 kmh 29.86 in1011.2 mb 0.00 in0.0 mm 0.00 in0.0 mm 0.00 in0.0 mm
02:04 AM 64.0°F17.8°C 62.2°F16.8°C 94% 1.6 mph SW2.6 kmh SW -- 29.86 in1011.2 mb 0.00 in0.0 mm 0.00 in0.0 mm 0.00 in0.0 mm
02:02 AM 63.9°F17.7°C 61.9°F16.6°C 93% 1.6 mph SW2.6 kmh SW -- 29.86 in1011.2 mb 0.00 in0.0 mm 0.00 in0.0 mm 0.00 in0.0 mm
01:56 AM 64.0°F17.8°C 62.1°F16.7°C 93% 1.6 mph SW2.6 kmh SW 2.2 mph3.5 kmh 29.86 in1011.2 mb 0.00 in0.0 mm 0.00 in0.0 mm 0.00 in0.0 mm
01:51 AM 64.2°F17.9°C 62.2°F16.8°C 93% Calm Calm 1.6 mph2.6 kmh 29.85 in1010.8 mb 0.00 in0.0 mm 0.00 in0.0 mm 0.00 in0.0 mm
01:46 AM 64.4°F18.0°C 62.1°F16.7°C 92% Calm Calm 1.6 mph2.6 kmh 29.85 in1010.8 mb 0.00 in0.0 mm 0.00 in0.0 mm 0.00 in0.0 mm
01:41 AM 64.6°F18.1°C 62.2°F16.8°C 92% Calm Calm 0.7 mph1.1 kmh 29.85 in1010.8 mb 0.00 in0.0 mm 0.00 in0.0 mm 0.00 in0.0 mm
01:35 AM 64.8°F18.2°C 62.4°F16.9°C 92% Calm Calm 1.6 mph2.6 kmh 29.85 in1010.8 mb 0.00 in0.0 mm 0.00 in0.0 mm 0.00 in0.0 mm
01:30 AM 64.9°F18.3°C 62.2°F16.8°C 91% 0.7 mph W1.1 kmh W 1.6 mph2.6 kmh 29.85 in1010.8 mb 0.00 in0.0 mm 0.00 in0.0 mm 0.00 in0.0 mm
01:25 AM 65.3°F18.5°C 62.2°F16.8°C 90% Calm Calm 0.7 mph1.1 kmh 29.85 in1010.8 mb 0.00 in0.0 mm 0.00 in0.0 mm 0.00 in0.0 mm
01:20 AM 65.5°F18.6°C 62.4°F16.9°C 90% Calm Calm 2.2 mph3.5 kmh 29.85 in1010.8 mb 0.00 in0.0 mm 0.00 in0.0 mm 0.00 in0.0 mm
01:15 AM 65.7°F18.7°C 62.6°F17.0°C 90% 0.7 mph E1.1 kmh E 2.2 mph3.5 kmh 29.85 in1010.8 mb 0.00 in0.0 mm 0.00 in0.0 mm 0.00 in0.0 mm
01:10 AM 65.8°F18.8°C 62.8°F17.1°C 90% 0.7 mph SE1.1 kmh SE 3.1 mph5.0 kmh 29.85 in1010.8 mb 0.00 in0.0 mm 0.00 in0.0 mm 0.00 in0.0 mm
01:04 AM 65.8°F18.8°C 62.8°F17.1°C 90% 1.6 mph E2.6 kmh E 3.8 mph6.1 kmh 29.86 in1011.2 mb 0.00 in0.0 mm 0.00 in0.0 mm 0.00 in0.0 mm
12:59 AM 66.0°F18.9°C 62.6°F17.0°C 89% 1.6 mph NE2.6 kmh NE 4.5 mph7.2 kmh 29.86 in1011.2 mb 0.00 in0.0 mm 0.00 in0.0 mm 0.00 in0.0 mm
12:54 AM 66.0°F18.9°C 62.6°F17.0°C 89% 3.1 mph SE5.0 kmh SE 4.5 mph7.2 kmh 29.86 in1011.2 mb 0.00 in0.0 mm 0.00 in0.0 mm 0.00 in0.0 mm
12:49 AM 66.2°F19.0°C 62.6°F17.0°C 88% 1.6 mph ENE2.6 kmh ENE 6.0 mph9.7 kmh 29.87 in1011.5 mb 0.00 in0.0 mm 0.00 in0.0 mm 0.00 in0.0 mm
12:44 AM 66.2°F19.0°C 62.6°F17.0°C 88% 3.1 mph E5.0 kmh E 5.4 mph8.7 kmh 29.86 in1011.2 mb 0.00 in0.0 mm 0.00 in0.0 mm 0.00 in0.0 mm
12:39 AM 66.4°F19.1°C 62.4°F16.9°C 87% 3.8 mph E6.1 kmh E 8.3 mph13.4 kmh 29.85 in1010.8 mb 0.00 in0.0 mm 0.00 in0.0 mm 0.00 in0.0 mm
12:33 AM 66.4°F19.1°C 62.4°F16.9°C 87% 3.8 mph SE6.1 kmh SE 9.8 mph15.8 kmh 29.86 in1011.2 mb 0.00 in0.0 mm 0.00 in0.0 mm 0.00 in0.0 mm
12:28 AM 66.4°F19.1°C 62.4°F16.9°C 87% 6.9 mph SE11.1 kmh SE 11.4 mph18.3 kmh 29.86 in1011.2 mb 0.00 in0.0 mm 0.00 in0.0 mm 0.00 in0.0 mm
12:23 AM 66.4°F19.1°C 62.4°F16.9°C 87% 4.5 mph E7.2 kmh E 13.6 mph21.9 kmh 29.85 in1010.8 mb 0.00 in0.0 mm 0.00 in0.0 mm 0.00 in0.0 mm
12:18 AM 66.2°F19.0°C 62.6°F17.0°C 88% 7.6 mph SE12.2 kmh SE 13.6 mph21.9 kmh 29.85 in1010.8 mb 0.00 in0.0 mm 0.00 in0.0 mm 0.00 in0.0 mm
12:13 AM 66.2°F19.0°C 62.6°F17.0°C 88% 7.6 mph E12.2 kmh E 15.2 mph24.5 kmh 29.84 in1010.5 mb 0.00 in0.0 mm 0.00 in0.0 mm 0.00 in0.0 mm
12:08 AM 66.0°F18.9°C 63.0°F17.2°C 90% 9.2 mph ESE14.8 kmh ESE 15.2 mph24.5 kmh 29.83 in1010.2 mb 0.00 in0.0 mm 0.00 in0.0 mm 0.00 in0.0 mm
12:02 AM 66.0°F18.9°C 63.0°F17.2°C 90% 6.9 mph SE11.1 kmh SE 12.1 mph19.5 kmh 29.83 in1010.2 mb 0.00 in0.0 mm 0.00 in0.0 mm 0.00 in0.0 mm